createdAt,value
2019-01-02T00:00:59.322Z,101619.81
2019-01-02T00:03:27.500Z,101626.60
2019-01-02T00:05:56.454Z,101622.78
2019-01-02T00:08:24.972Z,101634.36
2019-01-02T00:10:53.284Z,101626.33
2019-01-02T00:13:21.492Z,101627.41
2019-01-02T00:15:50.538Z,101632.54
2019-01-02T00:18:18.888Z,101629.52
2019-01-02T00:20:49.193Z,101627.81
2019-01-02T00:23:18.060Z,101623.44
2019-01-02T00:25:46.305Z,101628.36
2019-01-02T00:28:16.763Z,101615.23
2019-01-02T00:30:45.525Z,101615.69
2019-01-02T00:33:13.600Z,101626.60
2019-01-02T00:35:42.614Z,101636.30
2019-01-02T00:38:10.857Z,101632.27
2019-01-02T00:40:39.587Z,101636.86
2019-01-02T00:43:08.101Z,101654.91
2019-01-02T00:45:37.196Z,101664.48
2019-01-02T00:48:05.438Z,101669.66
2019-01-02T00:50:39.755Z,101666.76
2019-01-02T00:53:09.261Z,101682.63
2019-01-02T00:55:38.292Z,101686.56
2019-01-02T00:58:08.080Z,101665.59
2019-01-02T01:00:39.049Z,101663.45
2019-01-02T01:03:09.873Z,101667.44
2019-01-02T01:05:38.564Z,101665.88
2019-01-02T01:08:07.385Z,101670.41
2019-01-02T01:10:35.929Z,101658.73
2019-01-02T01:13:04.376Z,101670.94
2019-01-02T01:15:32.729Z,101675.91
2019-01-02T01:18:02.872Z,101676.11
2019-01-02T01:20:31.664Z,101672.61
2019-01-02T01:23:00.834Z,101675.57
2019-01-02T01:25:30.570Z,101694.97
2019-01-02T01:27:59.136Z,101697.66
2019-01-02T01:30:27.345Z,101701.71
2019-01-02T01:32:55.720Z,101703.34
2019-01-02T01:35:24.493Z,101710.88
2019-01-02T01:37:54.874Z,101703.91
2019-01-02T01:40:23.809Z,101704.37
2019-01-02T01:42:52.988Z,101704.78
2019-01-02T01:45:21.723Z,101684.45
2019-01-02T01:47:50.418Z,101696.63
2019-01-02T01:50:19.069Z,101704.91
2019-01-02T01:52:47.809Z,101699.39
2019-01-02T01:55:15.965Z,101696.30
2019-01-02T01:57:44.316Z,101695.48
2019-01-02T02:00:15.013Z,101702.76
2019-01-02T02:02:43.668Z,101706.62
2019-01-02T02:05:11.867Z,101702.24
2019-01-02T02:07:40.025Z,101701.58
2019-01-02T02:10:13.813Z,101695.38
2019-01-02T02:12:42.404Z,101710.94
2019-01-02T02:15:10.887Z,101715.92
2019-01-02T02:17:41.179Z,101723.12
2019-01-02T02:20:11.514Z,101741.92
2019-01-02T02:22:39.831Z,101743.80
2019-01-02T02:25:10.627Z,101742.42
2019-01-02T02:27:38.763Z,101756.42
2019-01-02T02:30:09.379Z,101765.97
2019-01-02T02:32:38.270Z,101765.87
2019-01-02T02:35:07.345Z,101752.58
2019-01-02T02:37:35.765Z,101744.92
2019-01-02T02:40:04.840Z,101743.57
2019-01-02T02:42:33.269Z,101734.73
2019-01-02T02:45:02.158Z,101741.94
2019-01-02T02:47:31.925Z,101738.61
2019-01-02T02:50:00.556Z,101730.29
2019-01-02T02:52:28.800Z,101739.56
2019-01-02T02:54:57.188Z,101751.69
2019-01-02T02:57:25.724Z,101752.02
2019-01-02T02:59:53.830Z,101752.81
2019-01-02T03:02:22.344Z,101740.33
2019-01-02T03:04:50.520Z,101739.52
2019-01-02T03:07:19.590Z,101740.61
2019-01-02T03:09:48.151Z,101746.52
2019-01-02T03:12:16.667Z,101746.00
2019-01-02T03:14:44.929Z,101748.95
2019-01-02T03:17:13.447Z,101749.37
2019-01-02T03:19:41.939Z,101745.17
2019-01-02T03:22:10.804Z,101756.22
2019-01-02T03:24:39.570Z,101753.19
2019-01-02T03:27:09.564Z,101758.78
2019-01-02T03:29:37.782Z,101761.62
2019-01-02T03:32:07.082Z,101764.89
2019-01-02T03:34:36.956Z,101770.48
2019-01-02T03:37:05.505Z,101771.48
2019-01-02T03:39:33.660Z,101775.67
2019-01-02T03:42:01.920Z,101778.16
2019-01-02T03:44:30.218Z,101774.66
2019-01-02T03:46:58.387Z,101767.45
2019-01-02T03:49:26.617Z,101765.79
2019-01-02T03:51:55.181Z,101769.69
2019-01-02T03:54:23.718Z,101770.83
2019-01-02T03:56:51.954Z,101777.56
2019-01-02T03:59:20.070Z,101782.48
2019-01-02T04:01:48.258Z,101786.27
2019-01-02T04:04:16.688Z,101792.64
2019-01-02T04:06:45.917Z,101789.20
2019-01-02T04:09:14.610Z,101787.68
2019-01-02T04:11:43.043Z,101784.48
2019-01-02T04:14:11.367Z,101784.56
2019-01-02T04:16:40.202Z,101786.98
2019-01-02T04:19:08.489Z,101779.67
2019-01-02T04:21:36.596Z,101783.65
2019-01-02T04:24:04.816Z,101789.17
2019-01-02T04:26:35.163Z,101783.58
2019-01-02T04:29:03.358Z,101781.70
2019-01-02T04:31:31.556Z,101783.95
2019-01-02T04:34:00.849Z,101780.62
2019-01-02T04:36:28.981Z,101775.84
2019-01-02T04:38:58.211Z,101775.52
2019-01-02T04:41:26.835Z,101778.02
2019-01-02T04:43:55.253Z,101781.51
2019-01-02T04:46:23.361Z,101788.11
2019-01-02T04:48:51.729Z,101784.77
2019-01-02T04:51:20.588Z,101789.14
2019-01-02T04:53:48.899Z,101787.27
2019-01-02T04:56:17.064Z,101794.33
2019-01-02T04:58:45.925Z,101798.91
2019-01-02T05:01:15.683Z,101798.11
2019-01-02T05:03:43.986Z,101801.53
2019-01-02T05:06:12.201Z,101799.23
2019-01-02T05:08:40.345Z,101796.94
2019-01-02T05:11:09.073Z,101804.52
2019-01-02T05:13:37.317Z,101804.52
2019-01-02T05:16:05.635Z,101808.06
2019-01-02T05:18:34.420Z,101805.63
2019-01-02T05:21:03.206Z,101806.33
2019-01-02T05:23:31.452Z,101812.61
2019-01-02T05:26:00.264Z,101806.27
2019-01-02T05:28:28.404Z,101810.03
2019-01-02T05:30:56.702Z,101818.33
2019-01-02T05:33:24.780Z,101816.78
2019-01-02T05:35:53.141Z,101822.98
2019-01-02T05:38:21.959Z,101814.94
2019-01-02T05:40:51.462Z,101829.09
2019-01-02T05:43:19.610Z,101824.98
2019-01-02T05:45:48.182Z,101830.17
2019-01-02T05:48:16.704Z,101833.27
2019-01-02T05:50:45.055Z,101834.25
2019-01-02T05:53:13.341Z,101839.09
2019-01-02T05:55:41.616Z,101843.75
2019-01-02T05:58:10.791Z,101848.73
2019-01-02T06:00:39.878Z,101850.42
2019-01-02T06:03:08.193Z,101848.61
2019-01-02T06:05:36.381Z,101849.42
2019-01-02T06:08:05.167Z,101856.16
2019-01-02T06:10:33.231Z,101854.11
2019-01-02T06:13:01.363Z,101857.55
2019-01-02T06:15:29.580Z,101860.91
2019-01-02T06:17:58.056Z,101860.30
2019-01-02T06:20:26.094Z,101863.27
2019-01-02T06:22:54.298Z,101863.17
2019-01-02T06:25:22.714Z,101862.16
2019-01-02T06:27:51.268Z,101870.55
2019-01-02T06:30:19.839Z,101854.45
2019-01-02T06:32:48.444Z,101864.22
2019-01-02T06:35:16.775Z,101878.17
2019-01-02T06:37:45.388Z,101877.77
2019-01-02T06:40:14.173Z,101881.54
2019-01-02T06:42:42.428Z,101880.52
2019-01-02T06:45:15.551Z,101886.99
2019-01-02T06:47:44.581Z,101892.21
2019-01-02T06:50:19.429Z,101890.98
2019-01-02T06:52:47.627Z,101885.59
2019-01-02T06:55:22.736Z,101897.34
2019-01-02T06:57:57.771Z,101893.55
2019-01-02T07:00:35.121Z,101898.41
2019-01-02T07:03:05.192Z,101902.03
2019-01-02T07:05:35.101Z,101913.27
2019-01-02T07:08:03.979Z,101908.96
2019-01-02T07:10:32.401Z,101910.54
2019-01-02T07:13:00.669Z,101924.53
2019-01-02T07:15:28.644Z,101923.53
2019-01-02T07:17:56.742Z,101923.75
2019-01-02T07:20:25.511Z,101923.19
2019-01-02T07:22:53.691Z,101924.67
2019-01-02T07:25:21.949Z,101935.45
2019-01-02T07:27:50.480Z,101936.39
2019-01-02T07:30:22.747Z,101943.27
2019-01-02T07:32:51.231Z,101952.70
2019-01-02T07:36:10.054Z,101958.23
2019-01-02T07:38:53.978Z,101965.67
2019-01-02T07:41:58.114Z,101981.55
2019-01-02T07:45:17.386Z,101985.20
2019-01-02T07:48:35.735Z,101990.89
2019-01-02T07:51:30.919Z,102002.87
2019-01-02T07:54:49.706Z,102007.77
2019-01-02T07:58:19.417Z,102018.34
2019-01-02T08:01:26.507Z,102019.15
2019-01-02T08:04:35.964Z,102026.72
2019-01-02T08:07:35.832Z,102030.92
2019-01-02T08:10:24.690Z,102029.61
2019-01-02T08:13:25.868Z,102034.70
2019-01-02T08:16:47.794Z,102035.91
2019-01-02T08:19:29.921Z,102036.46
2019-01-02T08:22:42.109Z,102039.09
2019-01-02T08:25:23.859Z,102041.62
2019-01-02T08:28:20.134Z,102056.52
2019-01-02T08:31:24.761Z,102056.47
2019-01-02T08:34:43.728Z,102062.69
2019-01-02T08:37:38.376Z,102056.49
2019-01-02T08:40:24.612Z,102065.53
2019-01-02T08:43:49.935Z,102063.31
2019-01-02T08:46:38.655Z,102079.36
2019-01-02T08:49:25.566Z,102080.97
2019-01-02T08:52:36.885Z,102097.56
2019-01-02T08:55:25.803Z,102100.45
2019-01-02T08:58:33.012Z,102094.63
2019-01-02T09:01:40.021Z,102098.19
2019-01-02T09:04:41.343Z,102100.27
2019-01-02T09:07:37.447Z,102107.95
2019-01-02T09:10:49.684Z,102108.69
2019-01-02T09:13:54.876Z,102110.88
2019-01-02T09:17:06.952Z,102118.47
2019-01-02T09:20:13.417Z,102124.84
2019-01-02T09:23:07.403Z,102132.89
2019-01-02T09:26:14.483Z,102132.81
2019-01-02T09:29:27.402Z,102135.45
2019-01-02T09:32:23.609Z,102139.08
2019-01-02T09:35:20.087Z,102145.66
2019-01-02T09:38:50.712Z,102150.86
2019-01-02T09:42:01.996Z,102165.84
2019-01-02T09:45:09.283Z,102170.84
2019-01-02T09:48:11.942Z,102170.39
2019-01-02T09:51:24.480Z,102168.70
2019-01-02T09:54:52.769Z,102165.95
2019-01-02T09:58:16.574Z,102175.03
2019-01-02T10:01:30.591Z,102176.34
2019-01-02T10:04:41.266Z,102175.74
2019-01-02T10:07:44.937Z,102181.40
2019-01-02T10:10:40.620Z,102178.40
2019-01-02T10:14:11.801Z,102177.75
2019-01-02T10:17:23.778Z,102174.10
2019-01-02T10:20:44.019Z,102179.09
2019-01-02T10:23:52.036Z,102173.18
2019-01-02T10:26:58.307Z,102172.72
2019-01-02T10:30:15.939Z,102184.98
2019-01-02T10:33:14.704Z,102183.87
2019-01-02T10:36:24.275Z,102186.17
2019-01-02T10:39:27.164Z,102186.27
2019-01-02T10:42:44.494Z,102181.98
2019-01-02T10:45:50.318Z,102183.28
2019-01-02T10:49:06.033Z,102184.57
2019-01-02T10:52:37.332Z,102183.05
2019-01-02T10:55:56.665Z,102186.00
2019-01-02T10:58:59.753Z,102203.19
2019-01-02T11:02:06.635Z,102190.72
2019-01-02T11:04:59.895Z,102196.63
2019-01-02T11:07:56.833Z,102191.02
2019-01-02T11:11:16.321Z,102203.08
2019-01-02T11:14:11.470Z,102207.81
2019-01-02T11:17:17.343Z,102205.26
2019-01-02T11:20:39.629Z,102199.02
2019-01-02T11:23:45.899Z,102203.29
2019-01-02T11:27:05.169Z,102200.66
2019-01-02T11:30:21.133Z,102201.91
2019-01-02T11:33:35.719Z,102208.64
2019-01-02T11:37:01.653Z,102205.53
2019-01-02T11:39:58.036Z,102208.49
2019-01-02T11:43:18.769Z,102209.39
2019-01-02T11:45:47.468Z,102209.22
2019-01-02T11:48:17.139Z,102199.50
2019-01-02T11:50:45.758Z,102204.02
2019-01-02T11:53:14.350Z,102208.69
2019-01-02T11:55:43.240Z,102210.72
2019-01-02T11:58:11.562Z,102217.25
2019-01-02T12:00:40.234Z,102223.40
2019-01-02T12:03:08.462Z,102222.46
2019-01-02T12:05:36.930Z,102215.49
2019-01-02T12:08:05.917Z,102216.27
2019-01-02T12:10:34.930Z,102220.84
2019-01-02T12:13:03.811Z,102218.32
2019-01-02T12:15:32.216Z,102212.26
2019-01-02T12:18:00.757Z,102221.28
2019-01-02T12:20:29.440Z,102221.45
2019-01-02T12:22:58.107Z,102213.33
2019-01-02T12:25:26.219Z,102205.73
2019-01-02T12:27:56.488Z,102223.41
2019-01-02T12:30:25.598Z,102223.84
2019-01-02T12:32:53.731Z,102228.67
2019-01-02T12:35:22.249Z,102225.75
2019-01-02T12:37:50.841Z,102229.81
2019-01-02T12:40:19.171Z,102230.14
2019-01-02T12:42:47.720Z,102226.23
2019-01-02T12:45:16.091Z,102223.17
2019-01-02T12:47:44.629Z,102224.54
2019-01-02T12:50:13.338Z,102228.65
2019-01-02T12:52:41.544Z,102229.94
2019-01-02T12:55:09.899Z,102226.63
2019-01-02T12:57:38.536Z,102236.50
2019-01-02T13:00:11.230Z,102223.84
2019-01-02T13:03:10.519Z,102229.98
2019-01-02T13:06:18.017Z,102234.42
2019-01-02T13:09:45.808Z,102234.69
2019-01-02T13:12:48.679Z,102240.13
2019-01-02T13:16:07.334Z,102243.70
2019-01-02T13:19:26.403Z,102245.62
2019-01-02T13:22:34.796Z,102250.20
2019-01-02T13:25:24.438Z,102253.23
2019-01-02T13:28:16.223Z,102257.98
2019-01-02T13:31:37.950Z,102263.08
2019-01-02T13:34:42.752Z,102255.75
2019-01-02T13:37:58.165Z,102261.61
2019-01-02T13:40:58.800Z,102261.89
2019-01-02T13:44:09.451Z,102259.28
2019-01-02T13:47:12.144Z,102270.06
2019-01-02T13:50:00.790Z,102267.30
2019-01-02T13:52:29.036Z,102275.71
2019-01-02T13:55:02.111Z,102280.07
2019-01-02T13:57:31.005Z,102276.08
2019-01-02T13:59:59.179Z,102274.94
2019-01-02T14:02:27.750Z,102288.55
2019-01-02T14:04:56.303Z,102282.80
2019-01-02T14:07:25.564Z,102283.61
2019-01-02T14:09:53.761Z,102288.33
2019-01-02T14:12:21.932Z,102293.31
2019-01-02T14:14:50.617Z,102289.20
2019-01-02T14:17:19.728Z,102291.78
2019-01-02T14:19:48.049Z,102293.70
2019-01-02T14:22:18.942Z,102297.52
2019-01-02T14:24:47.528Z,102296.86
2019-01-02T14:27:15.793Z,102304.17
2019-01-02T14:29:43.945Z,102303.39
2019-01-02T14:32:12.234Z,102302.20
2019-01-02T14:34:40.738Z,102314.28
2019-01-02T14:37:08.895Z,102316.88
2019-01-02T14:39:36.949Z,102319.07
2019-01-02T14:42:05.710Z,102318.28
2019-01-02T14:44:33.830Z,102317.83
2019-01-02T14:47:02.277Z,102324.23
2019-01-02T14:49:30.992Z,102329.91
2019-01-02T14:51:59.581Z,102339.48
2019-01-02T14:54:27.935Z,102329.33
2019-01-02T14:56:57.202Z,102346.03
2019-01-02T14:59:26.353Z,102348.11
2019-01-02T15:01:55.254Z,102346.70
2019-01-02T15:04:23.531Z,102349.98
2019-01-02T15:06:52.565Z,102351.97
2019-01-02T15:09:20.555Z,102348.78
2019-01-02T15:11:49.592Z,102357.41
2019-01-02T15:14:18.905Z,102362.05
2019-01-02T15:16:47.123Z,102368.16
2019-01-02T15:19:15.410Z,102364.22
2019-01-02T15:21:45.560Z,102375.41
2019-01-02T15:24:13.728Z,102374.86
2019-01-02T15:26:44.156Z,102374.91
2019-01-02T15:29:12.225Z,102377.56
2019-01-02T15:31:40.669Z,102386.00
2019-01-02T15:34:10.021Z,102384.41
2019-01-02T15:36:41.049Z,102385.52
2019-01-02T15:39:09.230Z,102390.94
2019-01-02T15:41:37.488Z,102394.30
2019-01-02T15:44:06.859Z,102395.17
2019-01-02T15:46:37.641Z,102393.98
2019-01-02T15:49:06.376Z,102402.77
2019-01-02T15:51:35.160Z,102399.98
2019-01-02T15:54:03.792Z,102401.84
2019-01-02T15:56:32.182Z,102408.48
2019-01-02T15:59:00.958Z,102411.48
2019-01-02T16:01:29.544Z,102414.28
2019-01-02T16:03:57.892Z,102419.78
2019-01-02T16:06:26.364Z,102416.22
2019-01-02T16:08:55.596Z,102420.59
2019-01-02T16:11:24.800Z,102428.08
2019-01-02T16:13:53.140Z,102435.89
2019-01-02T16:16:21.919Z,102437.52
2019-01-02T16:18:51.153Z,102439.50
2019-01-02T16:21:19.228Z,102442.67
2019-01-02T16:23:47.418Z,102443.22
2019-01-02T16:26:15.685Z,102448.97
2019-01-02T16:28:44.614Z,102446.75
2019-01-02T16:31:13.414Z,102454.36
2019-01-02T16:33:41.551Z,102456.11
2019-01-02T16:36:11.238Z,102456.17
2019-01-02T16:38:39.930Z,102460.05
2019-01-02T16:41:08.218Z,102457.89
2019-01-02T16:43:36.372Z,102461.03
2019-01-02T16:46:04.912Z,102465.88
2019-01-02T16:48:33.551Z,102460.48
2019-01-02T16:51:02.022Z,102468.94
2019-01-02T16:53:30.277Z,102469.91
2019-01-02T16:55:59.057Z,102469.02
2019-01-02T16:58:33.154Z,102469.33
2019-01-02T17:01:01.385Z,102468.14
2019-01-02T17:03:31.205Z,102469.98
2019-01-02T17:06:08.267Z,102455.67
2019-01-02T17:08:42.776Z,102466.88
2019-01-02T17:11:11.524Z,102470.61
2019-01-02T17:13:40.199Z,102472.36
2019-01-02T17:16:08.734Z,102478.33
2019-01-02T17:18:37.126Z,102480.41
2019-01-02T17:21:05.365Z,102475.38
2019-01-02T17:23:34.537Z,102472.91
2019-01-02T17:26:02.649Z,102483.00
2019-01-02T17:28:31.704Z,102483.89
2019-01-02T17:30:59.839Z,102483.78
2019-01-02T17:33:28.803Z,102494.27
2019-01-02T17:36:00.455Z,102493.56
2019-01-02T17:38:29.926Z,102496.75
2019-01-02T17:40:58.316Z,102496.44
2019-01-02T17:43:26.600Z,102498.20
2019-01-02T17:45:54.819Z,102496.22
2019-01-02T17:48:24.242Z,102506.72
2019-01-02T17:50:52.911Z,102512.34
2019-01-02T17:53:22.324Z,102512.34
2019-01-02T17:55:51.214Z,102510.12
2019-01-02T17:58:21.117Z,102516.33
2019-01-02T18:00:49.649Z,102513.78
2019-01-02T18:03:18.033Z,102518.48
2019-01-02T18:05:46.521Z,102519.66
2019-01-02T18:08:26.283Z,102517.88
2019-01-02T18:10:55.672Z,102517.11
2019-01-02T18:13:24.050Z,102526.01
2019-01-02T18:15:52.577Z,102518.05
2019-01-02T18:18:21.788Z,102527.34
2019-01-02T18:20:50.034Z,102517.83
2019-01-02T18:23:19.233Z,102532.55
2019-01-02T18:25:47.454Z,102533.44
2019-01-02T18:28:15.966Z,102537.59
2019-01-02T18:30:44.277Z,102537.59
2019-01-02T18:33:12.852Z,102541.17
2019-01-02T18:35:41.836Z,102532.55
2019-01-02T18:38:10.688Z,102538.55
2019-01-02T18:40:38.843Z,102538.55
2019-01-02T18:43:08.730Z,102542.75
2019-01-02T18:45:37.392Z,102541.31
2019-01-02T18:48:09.570Z,102538.10
2019-01-02T18:50:38.295Z,102535.03
2019-01-02T18:53:07.053Z,102537.66
2019-01-02T18:55:36.797Z,102536.61
2019-01-02T18:58:04.986Z,102536.72
2019-01-02T19:00:33.289Z,102540.59
2019-01-02T19:03:02.979Z,102540.59
2019-01-02T19:05:31.271Z,102540.01
2019-01-02T19:07:59.880Z,102535.36
2019-01-02T19:10:29.077Z,102548.41
2019-01-02T19:12:58.117Z,102545.98
2019-01-02T19:15:26.794Z,102549.16
2019-01-02T19:17:56.532Z,102547.28
2019-01-02T19:20:26.469Z,102552.51
2019-01-02T19:22:54.968Z,102552.51
2019-01-02T19:25:23.362Z,102548.56
2019-01-02T19:27:51.258Z,102553.59
2019-01-02T19:30:19.782Z,102552.34
2019-01-02T19:32:47.893Z,102558.31
2019-01-02T19:35:16.968Z,102557.42
2019-01-02T19:37:45.592Z,102552.48
2019-01-02T19:40:14.401Z,102555.68
2019-01-02T19:42:42.613Z,102558.70
2019-01-02T19:45:11.185Z,102555.45
2019-01-02T19:47:39.643Z,102555.45
2019-01-02T19:50:11.168Z,102552.11
2019-01-02T19:52:39.495Z,102549.89
2019-01-02T19:55:10.602Z,102548.30
2019-01-02T19:57:41.678Z,102551.45
2019-01-02T20:00:11.218Z,102549.88
2019-01-02T20:02:40.348Z,102549.88
2019-01-02T20:05:08.448Z,102550.06
2019-01-02T20:07:36.896Z,102546.80
2019-01-02T20:10:08.074Z,102548.46
2019-01-02T20:12:36.275Z,102547.78
2019-01-02T20:15:06.182Z,102550.29
2019-01-02T20:17:38.860Z,102550.29
2019-01-02T20:20:05.934Z,102551.95
2019-01-02T20:22:34.822Z,102548.67
2019-01-02T20:25:03.414Z,102546.29
2019-01-02T20:27:31.817Z,102545.67
2019-01-02T20:29:59.821Z,102548.95
2019-01-02T20:32:27.885Z,102542.09
2019-01-02T20:34:56.384Z,102543.48
2019-01-02T20:37:24.744Z,102539.63
2019-01-02T20:39:57.531Z,102539.22
2019-01-02T20:42:34.751Z,102533.77
2019-01-02T20:45:04.243Z,102518.51
2019-01-02T20:47:33.064Z,102520.55
2019-01-02T20:50:01.419Z,102520.55
2019-01-02T20:52:29.767Z,102522.89
2019-01-02T20:54:57.972Z,102528.06
2019-01-02T20:57:27.601Z,102528.06
2019-01-02T20:59:56.945Z,102524.12
2019-01-02T21:02:26.942Z,102526.08
2019-01-02T21:04:55.143Z,102526.56
2019-01-02T21:07:23.445Z,102526.56
2019-01-02T21:09:51.552Z,102524.13
2019-01-02T21:12:21.307Z,102524.13
2019-01-02T21:14:49.888Z,102520.33
2019-01-02T21:17:18.454Z,102514.67
2019-01-02T21:19:46.736Z,102515.03
2019-01-02T21:22:15.751Z,102515.14
2019-01-02T21:28:15.258Z,102510.72
2019-01-02T21:31:01.957Z,102509.98
2019-01-02T21:33:49.013Z,102509.98
2019-01-02T21:36:36.302Z,102520.06
2019-01-02T21:39:23.159Z,102502.27
2019-01-02T21:42:09.825Z,102513.72
2019-01-02T21:44:56.947Z,102511.80
2019-01-02T21:47:44.453Z,102511.05
2019-01-02T21:50:31.171Z,102511.73
2019-01-02T21:53:17.977Z,102510.17
2019-01-02T21:55:46.423Z,102508.78
2019-01-02T21:58:15.287Z,102506.91
2019-01-02T22:00:44.098Z,102508.70
2019-01-02T22:03:12.540Z,102503.81
2019-01-02T22:05:42.489Z,102504.72
2019-01-02T22:08:11.491Z,102507.27
2019-01-02T22:10:40.115Z,102497.73
2019-01-02T22:13:12.518Z,102494.71
2019-01-02T22:15:44.122Z,102497.56
2019-01-02T22:18:13.867Z,102495.48
2019-01-02T22:20:43.013Z,102496.09
2019-01-02T22:23:11.403Z,102502.94
2019-01-02T22:25:40.367Z,102501.07
2019-01-02T22:28:08.807Z,102489.99
2019-01-02T22:30:37.624Z,102495.30
2019-01-02T22:33:05.933Z,102496.95
2019-01-02T22:35:34.346Z,102497.47
2019-01-02T22:38:03.112Z,102501.39
2019-01-02T22:40:32.012Z,102502.88
2019-01-02T22:43:00.308Z,102501.31
2019-01-02T22:45:28.437Z,102506.08
2019-01-02T22:47:57.359Z,102502.66
2019-01-02T22:50:26.222Z,102511.20
2019-01-02T22:52:55.314Z,102502.86
2019-01-02T22:55:23.461Z,102506.40
2019-01-02T22:57:52.117Z,102505.13
2019-01-02T23:00:39.123Z,102503.04
2019-01-02T23:03:33.435Z,102506.20
2019-01-02T23:06:36.705Z,102504.05
2019-01-02T23:09:24.439Z,102509.62
2019-01-02T23:12:16.840Z,102502.98
2019-01-02T23:15:05.022Z,102502.09
2019-01-02T23:17:53.882Z,102498.56
2019-01-02T23:20:42.491Z,102506.58
2019-01-02T23:23:37.231Z,102504.03
2019-01-02T23:26:25.575Z,102498.25
2019-01-02T23:29:23.961Z,102500.02
2019-01-02T23:32:11.589Z,102503.84
2019-01-02T23:35:17.754Z,102504.23
2019-01-02T23:38:15.113Z,102506.98
2019-01-02T23:41:09.191Z,102503.24
2019-01-02T23:43:56.091Z,102494.34
2019-01-02T23:46:53.165Z,102505.13
2019-01-02T23:50:01.677Z,102505.63
2019-01-02T23:52:52.892Z,102499.31
2019-01-02T23:55:44.409Z,102495.84
2019-01-02T23:58:31.222Z,102485.39
